sensor_id;sensor_type;location;lat;lon;timestamp;P1;durP1;ratioP1;P2;durP2;ratioP2
51374;SDS011;37465;52.738;4.752;2022-08-19T00:01:22;9.90;;;8.93;;
51374;SDS011;37465;52.738;4.752;2022-08-19T00:03:55;9.88;;;8.93;;
51374;SDS011;37465;52.738;4.752;2022-08-19T00:06:24;10.30;;;9.30;;
51374;SDS011;37465;52.738;4.752;2022-08-19T00:08:52;10.52;;;9.52;;
51374;SDS011;37465;52.738;4.752;2022-08-19T00:11:19;10.85;;;9.70;;
51374;SDS011;37465;52.738;4.752;2022-08-19T00:13:51;10.40;;;9.40;;
51374;SDS011;37465;52.738;4.752;2022-08-19T00:16:19;10.52;;;9.63;;
51374;SDS011;37465;52.738;4.752;2022-08-19T00:18:52;10.32;;;9.23;;
51374;SDS011;37465;52.738;4.752;2022-08-19T00:21:19;10.70;;;9.73;;
51374;SDS011;37465;52.738;4.752;2022-08-19T00:23:48;10.23;;;9.23;;
51374;SDS011;37465;52.738;4.752;2022-08-19T00:26:15;10.05;;;9.15;;
51374;SDS011;37465;52.738;4.752;2022-08-19T00:28:43;10.68;;;9.57;;
51374;SDS011;37465;52.738;4.752;2022-08-19T00:31:10;10.40;;;9.50;;
51374;SDS011;37465;52.738;4.752;2022-08-19T00:33:38;10.82;;;9.63;;
51374;SDS011;37465;52.738;4.752;2022-08-19T00:36:06;10.40;;;9.50;;
51374;SDS011;37465;52.738;4.752;2022-08-19T00:38:35;10.02;;;9.10;;
51374;SDS011;37465;52.738;4.752;2022-08-19T00:41:05;10.35;;;9.25;;
51374;SDS011;37465;52.738;4.752;2022-08-19T00:43:33;9.75;;;8.80;;
51374;SDS011;37465;52.738;4.752;2022-08-19T00:46:00;10.75;;;9.75;;
51374;SDS011;37465;52.738;4.752;2022-08-19T00:48:28;10.68;;;9.75;;
51374;SDS011;37465;52.738;4.752;2022-08-19T00:50:56;10.50;;;9.50;;
51374;SDS011;37465;52.738;4.752;2022-08-19T00:53:24;11.00;;;9.90;;
51374;SDS011;37465;52.738;4.752;2022-08-19T00:55:53;10.95;;;9.85;;
51374;SDS011;37465;52.738;4.752;2022-08-19T00:58:24;11.47;;;10.37;;
51374;SDS011;37465;52.738;4.752;2022-08-19T01:00:53;10.57;;;9.67;;
51374;SDS011;37465;52.738;4.752;2022-08-19T01:03:21;10.77;;;9.70;;
51374;SDS011;37465;52.738;4.752;2022-08-19T01:05:49;10.48;;;9.40;;
51374;SDS011;37465;52.738;4.752;2022-08-19T01:08:18;10.98;;;9.80;;
51374;SDS011;37465;52.738;4.752;2022-08-19T01:10:47;11.40;;;10.20;;
51374;SDS011;37465;52.738;4.752;2022-08-19T01:13:15;11.23;;;10.20;;
51374;SDS011;37465;52.738;4.752;2022-08-19T01:15:45;11.13;;;10.13;;
51374;SDS011;37465;52.738;4.752;2022-08-19T01:18:14;10.93;;;9.93;;
51374;SDS011;37465;52.738;4.752;2022-08-19T01:20:42;11.80;;;10.50;;
51374;SDS011;37465;52.738;4.752;2022-08-19T01:23:11;11.88;;;10.73;;
51374;SDS011;37465;52.738;4.752;2022-08-19T01:25:41;12.73;;;11.43;;
51374;SDS011;37465;52.738;4.752;2022-08-19T01:28:14;11.83;;;10.63;;
51374;SDS011;37465;52.738;4.752;2022-08-19T01:30:42;12.18;;;11.07;;
51374;SDS011;37465;52.738;4.752;2022-08-19T01:33:16;13.02;;;11.82;;
51374;SDS011;37465;52.738;4.752;2022-08-19T01:35:43;13.30;;;12.00;;
51374;SDS011;37465;52.738;4.752;2022-08-19T01:38:21;13.20;;;11.90;;
51374;SDS011;37465;52.738;4.752;2022-08-19T01:40:49;13.20;;;11.90;;
51374;SDS011;37465;52.738;4.752;2022-08-19T01:43:17;14.02;;;12.63;;
51374;SDS011;37465;52.738;4.752;2022-08-19T01:45:46;14.02;;;12.55;;
51374;SDS011;37465;52.738;4.752;2022-08-19T01:48:13;12.85;;;11.60;;
51374;SDS011;37465;52.738;4.752;2022-08-19T01:50:41;13.00;;;11.80;;
51374;SDS011;37465;52.738;4.752;2022-08-19T01:53:10;13.47;;;12.13;;
51374;SDS011;37465;52.738;4.752;2022-08-19T01:55:41;13.47;;;12.27;;
51374;SDS011;37465;52.738;4.752;2022-08-19T01:58:10;13.65;;;12.45;;
51374;SDS011;37465;52.738;4.752;2022-08-19T02:00:38;14.43;;;13.02;;
51374;SDS011;37465;52.738;4.752;2022-08-19T02:03:06;15.37;;;13.80;;
51374;SDS011;37465;52.738;4.752;2022-08-19T02:05:35;15.13;;;13.68;;
51374;SDS011;37465;52.738;4.752;2022-08-19T02:08:03;15.20;;;13.70;;
51374;SDS011;37465;52.738;4.752;2022-08-19T02:10:30;15.10;;;13.70;;
51374;SDS011;37465;52.738;4.752;2022-08-19T02:12:59;15.77;;;14.20;;
51374;SDS011;37465;52.738;4.752;2022-08-19T02:15:26;15.75;;;14.23;;
51374;SDS011;37465;52.738;4.752;2022-08-19T02:17:54;15.68;;;14.18;;
51374;SDS011;37465;52.738;4.752;2022-08-19T02:20:21;16.30;;;14.70;;
51374;SDS011;37465;52.738;4.752;2022-08-19T02:22:49;15.95;;;14.48;;
51374;SDS011;37465;52.738;4.752;2022-08-19T02:25:17;17.05;;;15.35;;
51374;SDS011;37465;52.738;4.752;2022-08-19T02:27:45;16.98;;;15.38;;
51374;SDS011;37465;52.738;4.752;2022-08-19T02:30:16;17.73;;;16.03;;
51374;SDS011;37465;52.738;4.752;2022-08-19T02:32:45;17.63;;;15.83;;
51374;SDS011;37465;52.738;4.752;2022-08-19T02:35:12;17.90;;;16.20;;
51374;SDS011;37465;52.738;4.752;2022-08-19T02:37:40;18.02;;;16.33;;
51374;SDS011;37465;52.738;4.752;2022-08-19T02:40:25;18.50;;;16.60;;
51374;SDS011;37465;52.738;4.752;2022-08-19T02:42:53;18.63;;;16.73;;
51374;SDS011;37465;52.738;4.752;2022-08-19T02:45:22;19.13;;;17.33;;
51374;SDS011;37465;52.738;4.752;2022-08-19T02:47:49;19.63;;;17.63;;
51374;SDS011;37465;52.738;4.752;2022-08-19T02:50:16;20.70;;;18.50;;
51374;SDS011;37465;52.738;4.752;2022-08-19T02:52:44;19.55;;;17.63;;
51374;SDS011;37465;52.738;4.752;2022-08-19T02:55:12;20.20;;;18.20;;
51374;SDS011;37465;52.738;4.752;2022-08-19T02:57:39;20.73;;;18.67;;
51374;SDS011;37465;52.738;4.752;2022-08-19T03:00:08;21.53;;;19.33;;
51374;SDS011;37465;52.738;4.752;2022-08-19T03:02:39;22.43;;;20.17;;
51374;SDS011;37465;52.738;4.752;2022-08-19T03:05:07;22.20;;;19.90;;
51374;SDS011;37465;52.738;4.752;2022-08-19T03:07:35;22.02;;;19.73;;
51374;SDS011;37465;52.738;4.752;2022-08-19T03:10:03;22.83;;;20.52;;
51374;SDS011;37465;52.738;4.752;2022-08-19T03:12:30;22.88;;;20.45;;
51374;SDS011;37465;52.738;4.752;2022-08-19T03:14:58;23.77;;;21.27;;
51374;SDS011;37465;52.738;4.752;2022-08-19T03:17:26;23.95;;;21.45;;
51374;SDS011;37465;52.738;4.752;2022-08-19T03:19:55;22.83;;;20.48;;
51374;SDS011;37465;52.738;4.752;2022-08-19T03:22:23;22.48;;;20.10;;
51374;SDS011;37465;52.738;4.752;2022-08-19T03:24:51;23.63;;;21.13;;
51374;SDS011;37465;52.738;4.752;2022-08-19T03:27:19;23.15;;;20.85;;
51374;SDS011;37465;52.738;4.752;2022-08-19T03:29:47;24.02;;;21.42;;
51374;SDS011;37465;52.738;4.752;2022-08-19T03:32:14;24.35;;;21.08;;
51374;SDS011;37465;52.738;4.752;2022-08-19T03:34:59;23.88;;;21.38;;
51374;SDS011;37465;52.738;4.752;2022-08-19T03:37:27;23.48;;;21.05;;
51374;SDS011;37465;52.738;4.752;2022-08-19T03:39:54;25.08;;;21.80;;
51374;SDS011;37465;52.738;4.752;2022-08-19T03:42:22;23.75;;;21.20;;
51374;SDS011;37465;52.738;4.752;2022-08-19T03:45:09;26.55;;;22.42;;
51374;SDS011;37465;52.738;4.752;2022-08-19T03:47:37;26.02;;;22.70;;
51374;SDS011;37465;52.738;4.752;2022-08-19T03:50:06;25.75;;;22.85;;
51374;SDS011;37465;52.738;4.752;2022-08-19T03:52:34;24.80;;;21.97;;
51374;SDS011;37465;52.738;4.752;2022-08-19T03:55:02;25.10;;;22.00;;
51374;SDS011;37465;52.738;4.752;2022-08-19T03:57:30;25.33;;;22.67;;
51374;SDS011;37465;52.738;4.752;2022-08-19T03:59:58;25.00;;;22.30;;
51374;SDS011;37465;52.738;4.752;2022-08-19T04:02:39;25.42;;;22.70;;
51374;SDS011;37465;52.738;4.752;2022-08-19T04:05:08;24.58;;;21.73;;
51374;SDS011;37465;52.738;4.752;2022-08-19T04:07:35;26.42;;;22.42;;
51374;SDS011;37465;52.738;4.752;2022-08-19T04:10:03;25.30;;;22.13;;
51374;SDS011;37465;52.738;4.752;2022-08-19T04:12:35;24.33;;;21.83;;
51374;SDS011;37465;52.738;4.752;2022-08-19T04:15:04;25.13;;;22.43;;
51374;SDS011;37465;52.738;4.752;2022-08-19T04:17:32;25.50;;;22.77;;
51374;SDS011;37465;52.738;4.752;2022-08-19T04:19:59;25.38;;;22.73;;
51374;SDS011;37465;52.738;4.752;2022-08-19T04:22:33;25.23;;;22.33;;
51374;SDS011;37465;52.738;4.752;2022-08-19T04:25:01;24.77;;;21.90;;
51374;SDS011;37465;52.738;4.752;2022-08-19T04:27:28;23.95;;;21.48;;
51374;SDS011;37465;52.738;4.752;2022-08-19T04:29:57;27.05;;;23.25;;
51374;SDS011;37465;52.738;4.752;2022-08-19T04:32:24;25.25;;;22.25;;
51374;SDS011;37465;52.738;4.752;2022-08-19T04:34:52;27.38;;;22.70;;
51374;SDS011;37465;52.738;4.752;2022-08-19T04:37:44;26.27;;;22.80;;
51374;SDS011;37465;52.738;4.752;2022-08-19T04:40:11;27.73;;;23.23;;
51374;SDS011;37465;52.738;4.752;2022-08-19T04:42:56;25.65;;;22.95;;
51374;SDS011;37465;52.738;4.752;2022-08-19T04:45:23;25.60;;;22.60;;
51374;SDS011;37465;52.738;4.752;2022-08-19T04:47:54;27.80;;;22.92;;
51374;SDS011;37465;52.738;4.752;2022-08-19T04:50:43;26.98;;;23.17;;
51374;SDS011;37465;52.738;4.752;2022-08-19T04:53:12;25.70;;;23.05;;
51374;SDS011;37465;52.738;4.752;2022-08-19T04:55:40;25.27;;;22.65;;
51374;SDS011;37465;52.738;4.752;2022-08-19T04:58:07;27.27;;;24.35;;
51374;SDS011;37465;52.738;4.752;2022-08-19T05:00:37;27.77;;;24.77;;
51374;SDS011;37465;52.738;4.752;2022-08-19T05:03:05;27.90;;;24.90;;
51374;SDS011;37465;52.738;4.752;2022-08-19T05:05:33;27.50;;;24.48;;
51374;SDS011;37465;52.738;4.752;2022-08-19T05:08:12;27.67;;;24.77;;
51374;SDS011;37465;52.738;4.752;2022-08-19T05:10:41;28.05;;;25.05;;
51374;SDS011;37465;52.738;4.752;2022-08-19T05:13:09;27.35;;;24.45;;
51374;SDS011;37465;52.738;4.752;2022-08-19T05:15:37;27.88;;;24.83;;
51374;SDS011;37465;52.738;4.752;2022-08-19T05:18:04;28.55;;;25.52;;
51374;SDS011;37465;52.738;4.752;2022-08-19T05:20:49;28.85;;;25.90;;
51374;SDS011;37465;52.738;4.752;2022-08-19T05:23:35;29.17;;;26.10;;
51374;SDS011;37465;52.738;4.752;2022-08-19T05:26:03;30.10;;;26.90;;
51374;SDS011;37465;52.738;4.752;2022-08-19T05:28:31;30.30;;;27.10;;
51374;SDS011;37465;52.738;4.752;2022-08-19T05:30:58;31.20;;;27.80;;
51374;SDS011;37465;52.738;4.752;2022-08-19T05:33:25;32.92;;;29.38;;
51374;SDS011;37465;52.738;4.752;2022-08-19T05:35:53;33.10;;;29.60;;
51374;SDS011;37465;52.738;4.752;2022-08-19T05:38:22;34.10;;;29.80;;
51374;SDS011;37465;52.738;4.752;2022-08-19T05:40:50;33.30;;;29.67;;
51374;SDS011;37465;52.738;4.752;2022-08-19T05:43:18;34.03;;;30.42;;
51374;SDS011;37465;52.738;4.752;2022-08-19T05:45:45;35.20;;;31.27;;
51374;SDS011;37465;52.738;4.752;2022-08-19T05:48:13;34.45;;;30.70;;
51374;SDS011;37465;52.738;4.752;2022-08-19T05:50:41;34.83;;;30.73;;
51374;SDS011;37465;52.738;4.752;2022-08-19T05:53:08;35.07;;;31.27;;
51374;SDS011;37465;52.738;4.752;2022-08-19T05:55:36;35.40;;;31.05;;
51374;SDS011;37465;52.738;4.752;2022-08-19T05:58:06;34.28;;;30.58;;
51374;SDS011;37465;52.738;4.752;2022-08-19T06:00:34;36.05;;;30.02;;
51374;SDS011;37465;52.738;4.752;2022-08-19T06:03:02;35.00;;;29.58;;
51374;SDS011;37465;52.738;4.752;2022-08-19T06:05:37;33.15;;;29.15;;
51374;SDS011;37465;52.738;4.752;2022-08-19T06:08:17;32.60;;;29.10;;
51374;SDS011;37465;52.738;4.752;2022-08-19T06:10:45;30.85;;;27.52;;
51374;SDS011;37465;52.738;4.752;2022-08-19T06:13:14;30.80;;;27.40;;
51374;SDS011;37465;52.738;4.752;2022-08-19T06:15:41;29.90;;;26.33;;
51374;SDS011;37465;52.738;4.752;2022-08-19T06:18:10;27.65;;;24.55;;
51374;SDS011;37465;52.738;4.752;2022-08-19T06:20:37;25.67;;;22.90;;
51374;SDS011;37465;52.738;4.752;2022-08-19T06:23:21;23.33;;;20.98;;
51374;SDS011;37465;52.738;4.752;2022-08-19T06:25:49;21.63;;;19.33;;
51374;SDS011;37465;52.738;4.752;2022-08-19T06:28:18;22.13;;;19.00;;
51374;SDS011;37465;52.738;4.752;2022-08-19T06:30:46;19.27;;;17.30;;
51374;SDS011;37465;52.738;4.752;2022-08-19T06:33:13;18.15;;;16.20;;
51374;SDS011;37465;52.738;4.752;2022-08-19T06:35:43;18.00;;;15.90;;
51374;SDS011;37465;52.738;4.752;2022-08-19T06:38:11;20.85;;;15.82;;
51374;SDS011;37465;52.738;4.752;2022-08-19T06:40:38;17.33;;;15.57;;
51374;SDS011;37465;52.738;4.752;2022-08-19T06:43:06;17.13;;;15.15;;
51374;SDS011;37465;52.738;4.752;2022-08-19T06:45:37;17.55;;;14.55;;
51374;SDS011;37465;52.738;4.752;2022-08-19T06:48:05;15.80;;;13.55;;
51374;SDS011;37465;52.738;4.752;2022-08-19T06:50:33;16.73;;;13.07;;
51374;SDS011;37465;52.738;4.752;2022-08-19T06:53:04;16.30;;;11.50;;
51374;SDS011;37465;52.738;4.752;2022-08-19T06:55:32;9.35;;;7.20;;
51374;SDS011;37465;52.738;4.752;2022-08-19T06:58:01;11.75;;;7.88;;
51374;SDS011;37465;52.738;4.752;2022-08-19T07:00:29;14.20;;;8.18;;
51374;SDS011;37465;52.738;4.752;2022-08-19T07:03:03;14.20;;;8.88;;
51374;SDS011;37465;52.738;4.752;2022-08-19T07:05:37;11.40;;;8.07;;
51374;SDS011;37465;52.738;4.752;2022-08-19T07:08:10;13.63;;;8.48;;
51374;SDS011;37465;52.738;4.752;2022-08-19T07:10:41;12.43;;;7.85;;
51374;SDS011;37465;52.738;4.752;2022-08-19T07:13:09;10.63;;;7.80;;
51374;SDS011;37465;52.738;4.752;2022-08-19T07:15:37;12.02;;;8.00;;
51374;SDS011;37465;52.738;4.752;2022-08-19T07:18:06;11.32;;;7.50;;
51374;SDS011;37465;52.738;4.752;2022-08-19T07:20:37;11.68;;;8.10;;
51374;SDS011;37465;52.738;4.752;2022-08-19T07:23:07;9.73;;;7.33;;
51374;SDS011;37465;52.738;4.752;2022-08-19T07:25:40;10.50;;;6.70;;
51374;SDS011;37465;52.738;4.752;2022-08-19T07:28:08;10.65;;;6.70;;
51374;SDS011;37465;52.738;4.752;2022-08-19T07:30:50;9.63;;;7.00;;
51374;SDS011;37465;52.738;4.752;2022-08-19T07:33:19;13.63;;;7.50;;
51374;SDS011;37465;52.738;4.752;2022-08-19T07:35:47;10.10;;;7.00;;
51374;SDS011;37465;52.738;4.752;2022-08-19T07:38:14;11.37;;;6.90;;
51374;SDS011;37465;52.738;4.752;2022-08-19T07:40:43;11.35;;;6.78;;
51374;SDS011;37465;52.738;4.752;2022-08-19T07:43:11;10.93;;;6.33;;
51374;SDS011;37465;52.738;4.752;2022-08-19T07:45:43;9.10;;;6.23;;
51374;SDS011;37465;52.738;4.752;2022-08-19T07:48:10;7.30;;;6.10;;
51374;SDS011;37465;52.738;4.752;2022-08-19T07:50:39;9.00;;;6.10;;
51374;SDS011;37465;52.738;4.752;2022-08-19T07:53:07;9.40;;;6.20;;
51374;SDS011;37465;52.738;4.752;2022-08-19T07:55:35;8.75;;;6.50;;
51374;SDS011;37465;52.738;4.752;2022-08-19T07:58:09;9.50;;;6.40;;
51374;SDS011;37465;52.738;4.752;2022-08-19T08:00:37;9.35;;;6.38;;
51374;SDS011;37465;52.738;4.752;2022-08-19T08:03:04;8.73;;;6.50;;
51374;SDS011;37465;52.738;4.752;2022-08-19T08:05:32;6.80;;;6.10;;
51374;SDS011;37465;52.738;4.752;2022-08-19T08:08:18;8.55;;;6.47;;
51374;SDS011;37465;52.738;4.752;2022-08-19T08:11:09;7.70;;;5.70;;
51374;SDS011;37465;52.738;4.752;2022-08-19T08:13:40;7.53;;;6.10;;
51374;SDS011;37465;52.738;4.752;2022-08-19T08:16:08;7.40;;;5.50;;
51374;SDS011;37465;52.738;4.752;2022-08-19T08:18:39;8.60;;;6.05;;
51374;SDS011;37465;52.738;4.752;2022-08-19T08:21:08;7.25;;;5.85;;
51374;SDS011;37465;52.738;4.752;2022-08-19T08:23:37;9.23;;;5.60;;
51374;SDS011;37465;52.738;4.752;2022-08-19T08:26:05;8.60;;;6.07;;
51374;SDS011;37465;52.738;4.752;2022-08-19T08:28:32;6.97;;;5.95;;
51374;SDS011;37465;52.738;4.752;2022-08-19T08:30:59;6.22;;;5.10;;
51374;SDS011;37465;52.738;4.752;2022-08-19T08:33:34;6.95;;;5.30;;
51374;SDS011;37465;52.738;4.752;2022-08-19T08:36:04;7.07;;;5.50;;
51374;SDS011;37465;52.738;4.752;2022-08-19T08:38:32;7.45;;;5.40;;
51374;SDS011;37465;52.738;4.752;2022-08-19T08:41:09;9.20;;;5.72;;
51374;SDS011;37465;52.738;4.752;2022-08-19T08:43:46;7.10;;;5.22;;
51374;SDS011;37465;52.738;4.752;2022-08-19T08:46:15;8.05;;;5.68;;
51374;SDS011;37465;52.738;4.752;2022-08-19T08:48:58;8.25;;;5.50;;
51374;SDS011;37465;52.738;4.752;2022-08-19T08:51:27;8.75;;;5.50;;
51374;SDS011;37465;52.738;4.752;2022-08-19T08:54:00;6.90;;;5.50;;
51374;SDS011;37465;52.738;4.752;2022-08-19T08:56:30;10.30;;;6.00;;
51374;SDS011;37465;52.738;4.752;2022-08-19T08:58:59;7.35;;;4.70;;
51374;SDS011;37465;52.738;4.752;2022-08-19T09:01:27;5.78;;;4.90;;
51374;SDS011;37465;52.738;4.752;2022-08-19T09:03:56;6.70;;;5.18;;
51374;SDS011;37465;52.738;4.752;2022-08-19T09:06:29;7.25;;;5.15;;
51374;SDS011;37465;52.738;4.752;2022-08-19T09:09:00;7.10;;;5.50;;
51374;SDS011;37465;52.738;4.752;2022-08-19T09:11:43;5.72;;;4.93;;
51374;SDS011;37465;52.738;4.752;2022-08-19T09:14:17;6.13;;;4.65;;
51374;SDS011;37465;52.738;4.752;2022-08-19T09:17:05;6.57;;;4.82;;
51374;SDS011;37465;52.738;4.752;2022-08-19T09:19:34;5.20;;;4.40;;
51374;SDS011;37465;52.738;4.752;2022-08-19T09:22:01;6.25;;;4.50;;
51374;SDS011;37465;52.738;4.752;2022-08-19T09:24:29;6.95;;;5.00;;
51374;SDS011;37465;52.738;4.752;2022-08-19T09:26:57;7.32;;;5.32;;
51374;SDS011;37465;52.738;4.752;2022-08-19T09:29:25;7.32;;;5.20;;
51374;SDS011;37465;52.738;4.752;2022-08-19T09:31:52;5.78;;;5.28;;
51374;SDS011;37465;52.738;4.752;2022-08-19T09:34:20;8.02;;;5.70;;
51374;SDS011;37465;52.738;4.752;2022-08-19T09:36:47;5.18;;;4.68;;
51374;SDS011;37465;52.738;4.752;2022-08-19T09:39:19;6.18;;;4.85;;
51374;SDS011;37465;52.738;4.752;2022-08-19T09:41:47;4.82;;;4.30;;
51374;SDS011;37465;52.738;4.752;2022-08-19T09:44:17;4.60;;;4.20;;
51374;SDS011;37465;52.738;4.752;2022-08-19T09:46:47;5.47;;;4.60;;
51374;SDS011;37465;52.738;4.752;2022-08-19T09:49:15;6.57;;;4.78;;
51374;SDS011;37465;52.738;4.752;2022-08-19T09:51:43;7.55;;;5.32;;
51374;SDS011;37465;52.738;4.752;2022-08-19T09:54:16;6.65;;;5.13;;
51374;SDS011;37465;52.738;4.752;2022-08-19T09:56:49;6.00;;;4.50;;
51374;SDS011;37465;52.738;4.752;2022-08-19T09:59:18;6.25;;;4.55;;
51374;SDS011;37465;52.738;4.752;2022-08-19T10:01:45;5.10;;;4.40;;
51374;SDS011;37465;52.738;4.752;2022-08-19T10:04:14;6.28;;;4.85;;
51374;SDS011;37465;52.738;4.752;2022-08-19T10:06:47;5.75;;;4.65;;
51374;SDS011;37465;52.738;4.752;2022-08-19T10:09:19;6.07;;;4.85;;
51374;SDS011;37465;52.738;4.752;2022-08-19T10:12:00;5.38;;;4.88;;
51374;SDS011;37465;52.738;4.752;2022-08-19T10:14:29;5.95;;;5.35;;
51374;SDS011;37465;52.738;4.752;2022-08-19T10:16:57;5.97;;;5.10;;
51374;SDS011;37465;52.738;4.752;2022-08-19T10:19:29;6.03;;;5.30;;
51374;SDS011;37465;52.738;4.752;2022-08-19T10:22:02;5.40;;;4.88;;
51374;SDS011;37465;52.738;4.752;2022-08-19T10:24:35;5.05;;;4.18;;
51374;SDS011;37465;52.738;4.752;2022-08-19T10:27:02;6.65;;;5.10;;
51374;SDS011;37465;52.738;4.752;2022-08-19T10:29:35;6.32;;;5.50;;
51374;SDS011;37465;52.738;4.752;2022-08-19T10:32:11;6.38;;;5.00;;
51374;SDS011;37465;52.738;4.752;2022-08-19T10:34:39;6.07;;;4.90;;
51374;SDS011;37465;52.738;4.752;2022-08-19T10:37:14;6.32;;;4.80;;
51374;SDS011;37465;52.738;4.752;2022-08-19T10:39:49;5.93;;;4.97;;
51374;SDS011;37465;52.738;4.752;2022-08-19T10:42:17;7.05;;;4.88;;
51374;SDS011;37465;52.738;4.752;2022-08-19T10:44:46;5.30;;;4.68;;
51374;SDS011;37465;52.738;4.752;2022-08-19T10:47:17;4.90;;;4.35;;
51374;SDS011;37465;52.738;4.752;2022-08-19T10:49:51;5.55;;;4.45;;
51374;SDS011;37465;52.738;4.752;2022-08-19T10:52:37;6.10;;;4.20;;
51374;SDS011;37465;52.738;4.752;2022-08-19T10:55:15;6.68;;;4.40;;
51374;SDS011;37465;52.738;4.752;2022-08-19T10:58:01;5.88;;;3.83;;
51374;SDS011;37465;52.738;4.752;2022-08-19T11:00:29;4.33;;;3.93;;
51374;SDS011;37465;52.738;4.752;2022-08-19T11:02:58;5.55;;;4.30;;
51374;SDS011;37465;52.738;4.752;2022-08-19T11:05:25;5.20;;;4.20;;
51374;SDS011;37465;52.738;4.752;2022-08-19T11:07:54;4.25;;;3.70;;
51374;SDS011;37465;52.738;4.752;2022-08-19T11:10:22;4.05;;;3.65;;
51374;SDS011;37465;52.738;4.752;2022-08-19T11:12:49;4.38;;;3.92;;
51374;SDS011;37465;52.738;4.752;2022-08-19T11:15:19;6.50;;;4.18;;
51374;SDS011;37465;52.738;4.752;2022-08-19T11:17:48;6.88;;;4.72;;
51374;SDS011;37465;52.738;4.752;2022-08-19T11:20:16;5.85;;;4.20;;
51374;SDS011;37465;52.738;4.752;2022-08-19T11:22:43;4.60;;;4.20;;
51374;SDS011;37465;52.738;4.752;2022-08-19T11:25:12;4.95;;;3.67;;
51374;SDS011;37465;52.738;4.752;2022-08-19T11:27:40;4.33;;;3.90;;
51374;SDS011;37465;52.738;4.752;2022-08-19T11:30:09;6.22;;;4.70;;
51374;SDS011;37465;52.738;4.752;2022-08-19T11:32:38;4.38;;;3.97;;
51374;SDS011;37465;52.738;4.752;2022-08-19T11:35:13;5.45;;;4.20;;
51374;SDS011;37465;52.738;4.752;2022-08-19T11:37:41;4.93;;;4.25;;
51374;SDS011;37465;52.738;4.752;2022-08-19T11:40:09;5.55;;;4.20;;
51374;SDS011;37465;52.738;4.752;2022-08-19T11:42:37;5.35;;;4.45;;
51374;SDS011;37465;52.738;4.752;2022-08-19T11:45:23;4.90;;;4.13;;
51374;SDS011;37465;52.738;4.752;2022-08-19T11:47:51;5.90;;;4.90;;
51374;SDS011;37465;52.738;4.752;2022-08-19T11:50:20;5.38;;;4.57;;
51374;SDS011;37465;52.738;4.752;2022-08-19T11:52:47;5.55;;;4.20;;
51374;SDS011;37465;52.738;4.752;2022-08-19T11:55:15;5.53;;;4.30;;
51374;SDS011;37465;52.738;4.752;2022-08-19T11:57:43;4.90;;;4.00;;
51374;SDS011;37465;52.738;4.752;2022-08-19T12:00:11;5.85;;;3.95;;
51374;SDS011;37465;52.738;4.752;2022-08-19T12:02:39;5.38;;;4.13;;
51374;SDS011;37465;52.738;4.752;2022-08-19T12:05:07;4.15;;;3.40;;
51374;SDS011;37465;52.738;4.752;2022-08-19T12:07:39;4.70;;;3.65;;
51374;SDS011;37465;52.738;4.752;2022-08-19T12:10:10;4.28;;;3.70;;
51374;SDS011;37465;52.738;4.752;2022-08-19T12:12:37;4.05;;;3.38;;
51374;SDS011;37465;52.738;4.752;2022-08-19T12:15:08;4.85;;;3.75;;
51374;SDS011;37465;52.738;4.752;2022-08-19T12:17:37;8.40;;;4.13;;
51374;SDS011;37465;52.738;4.752;2022-08-19T12:20:05;4.60;;;3.83;;
51374;SDS011;37465;52.738;4.752;2022-08-19T12:22:34;5.60;;;3.80;;
51374;SDS011;37465;52.738;4.752;2022-08-19T12:25:04;3.72;;;3.25;;
51374;SDS011;37465;52.738;4.752;2022-08-19T12:27:32;3.85;;;3.38;;
51374;SDS011;37465;52.738;4.752;2022-08-19T12:30:07;3.97;;;3.53;;
51374;SDS011;37465;52.738;4.752;2022-08-19T12:32:35;4.15;;;3.13;;
51374;SDS011;37465;52.738;4.752;2022-08-19T12:35:03;3.42;;;3.00;;
51374;SDS011;37465;52.738;4.752;2022-08-19T12:37:30;4.45;;;3.70;;
51374;SDS011;37465;52.738;4.752;2022-08-19T12:39:58;5.20;;;3.88;;
51374;SDS011;37465;52.738;4.752;2022-08-19T13:02:16;4.57;;;3.33;;
51374;SDS011;37465;52.738;4.752;2022-08-19T13:04:43;6.82;;;2.80;;
51374;SDS011;37465;52.738;4.752;2022-08-19T13:07:11;4.87;;;4.27;;
51374;SDS011;37465;52.738;4.752;2022-08-19T13:09:38;3.65;;;2.67;;
51374;SDS011;37465;52.738;4.752;2022-08-19T14:36:36;1.90;;;1.20;;
51374;SDS011;37465;52.738;4.752;2022-08-19T14:39:05;3.17;;;1.23;;
51374;SDS011;37465;52.738;4.752;2022-08-19T14:51:23;2.55;;;1.40;;
51374;SDS011;37465;52.738;4.752;2022-08-19T14:53:54;1.23;;;1.05;;
51374;SDS011;37465;52.738;4.752;2022-08-19T14:58:48;2.55;;;1.35;;
51374;SDS011;37465;52.738;4.752;2022-08-19T15:01:17;2.58;;;1.45;;
51374;SDS011;37465;52.738;4.752;2022-08-19T15:03:47;2.00;;;1.45;;
51374;SDS011;37465;52.738;4.752;2022-08-19T15:06:15;2.35;;;1.40;;
51374;SDS011;37465;52.738;4.752;2022-08-19T15:08:42;2.20;;;1.70;;
51374;SDS011;37465;52.738;4.752;2022-08-19T15:11:13;2.28;;;1.60;;
51374;SDS011;37465;52.738;4.752;2022-08-19T15:13:42;1.52;;;1.13;;
51374;SDS011;37465;52.738;4.752;2022-08-19T15:16:09;1.15;;;1.05;;
51374;SDS011;37465;52.738;4.752;2022-08-19T15:18:43;1.58;;;1.35;;
51374;SDS011;37465;52.738;4.752;2022-08-19T15:21:11;2.40;;;1.40;;
51374;SDS011;37465;52.738;4.752;2022-08-19T15:23:39;1.58;;;1.48;;
51374;SDS011;37465;52.738;4.752;2022-08-19T15:26:12;3.13;;;1.27;;
51374;SDS011;37465;52.738;4.752;2022-08-19T15:28:41;1.80;;;1.20;;
51374;SDS011;37465;52.738;4.752;2022-08-19T15:31:09;3.28;;;1.40;;
51374;SDS011;37465;52.738;4.752;2022-08-19T15:33:53;1.80;;;1.35;;
51374;SDS011;37465;52.738;4.752;2022-08-19T15:36:22;1.67;;;1.27;;
51374;SDS011;37465;52.738;4.752;2022-08-19T15:38:49;2.03;;;1.42;;
51374;SDS011;37465;52.738;4.752;2022-08-19T15:41:20;1.80;;;1.40;;
51374;SDS011;37465;52.738;4.752;2022-08-19T15:43:51;1.65;;;1.20;;
51374;SDS011;37465;52.738;4.752;2022-08-19T15:46:22;2.92;;;1.33;;
51374;SDS011;37465;52.738;4.752;2022-08-19T15:48:50;1.83;;;1.42;;
51374;SDS011;37465;52.738;4.752;2022-08-19T15:51:25;1.65;;;1.20;;
51374;SDS011;37465;52.738;4.752;2022-08-19T15:53:53;3.47;;;1.20;;
51374;SDS011;37465;52.738;4.752;2022-08-19T15:56:22;1.55;;;1.20;;
51374;SDS011;37465;52.738;4.752;2022-08-19T15:58:52;2.72;;;1.90;;
51374;SDS011;37465;52.738;4.752;2022-08-19T16:01:37;1.95;;;1.23;;
51374;SDS011;37465;52.738;4.752;2022-08-19T16:04:24;2.17;;;1.17;;
51374;SDS011;37465;52.738;4.752;2022-08-19T16:07:09;2.78;;;1.10;;
51374;SDS011;37465;52.738;4.752;2022-08-19T16:09:37;4.65;;;1.05;;
51374;SDS011;37465;52.738;4.752;2022-08-19T16:12:07;1.75;;;0.93;;
51374;SDS011;37465;52.738;4.752;2022-08-19T16:14:35;0.93;;;0.80;;
51374;SDS011;37465;52.738;4.752;2022-08-19T16:17:04;0.90;;;0.70;;
51374;SDS011;37465;52.738;4.752;2022-08-19T16:19:31;1.13;;;0.70;;
51374;SDS011;37465;52.738;4.752;2022-08-19T16:21:59;1.37;;;0.80;;
51374;SDS011;37465;52.738;4.752;2022-08-19T16:24:26;1.05;;;0.90;;
51374;SDS011;37465;52.738;4.752;2022-08-19T16:26:54;1.00;;;0.65;;
51374;SDS011;37465;52.738;4.752;2022-08-19T16:29:23;1.05;;;0.63;;
51374;SDS011;37465;52.738;4.752;2022-08-19T16:32:05;1.50;;;0.63;;
51374;SDS011;37465;52.738;4.752;2022-08-19T16:34:32;1.83;;;0.88;;
51374;SDS011;37465;52.738;4.752;2022-08-19T16:37:00;1.10;;;0.88;;
51374;SDS011;37465;52.738;4.752;2022-08-19T16:39:28;1.10;;;0.80;;
51374;SDS011;37465;52.738;4.752;2022-08-19T16:41:55;1.05;;;0.98;;
51374;SDS011;37465;52.738;4.752;2022-08-19T16:44:24;1.23;;;1.13;;
51374;SDS011;37465;52.738;4.752;2022-08-19T16:46:55;1.67;;;1.00;;
51374;SDS011;37465;52.738;4.752;2022-08-19T16:49:24;1.83;;;1.10;;